Map

Track Data

SID SEASON NUMBER BASIN SUBBASIN NAME ISO_TIME NATURE LAT LON WMO_WIND WMO_PRES WMO_AGENCY TRACK_TYPE DIST2LAND LANDFALL IFLAG USA_AGENCY USA_ATCF_ID USA_LAT USA_LON USA_RECORD USA_STATUS USA_WIND USA_PRES USA_SSHS USA_R34_NE USA_R34_SE USA_R34_SW USA_R34_NW USA_R50_NE USA_R50_SE USA_R50_SW USA_R50_NW USA_R64_NE USA_R64_SE USA_R64_SW USA_R64_NW USA_POCI USA_ROCI USA_RMW USA_EYE TOKYO_LAT TOKYO_LON TOKYO_GRADE TOKYO_WIND TOKYO_PRES TOKYO_R50_DIR TOKYO_R50_LONG TOKYO_R50_SHORT TOKYO_R30_DIR TOKYO_R30_LONG TOKYO_R30_SHORT TOKYO_LAND CMA_LAT CMA_LON CMA_CAT CMA_WIND CMA_PRES HKO_LAT HKO_LON HKO_CAT HKO_WIND HKO_PRES NEWDELHI_LAT NEWDELHI_LON NEWDELHI_GRADE NEWDELHI_WIND NEWDELHI_PRES NEWDELHI_CI NEWDELHI_DP NEWDELHI_POCI REUNION_LAT REUNION_LON REUNION_TYPE REUNION_WIND REUNION_PRES REUNION_TNUM REUNION_CI REUNION_RMW REUNION_R34_NE REUNION_R34_SE REUNION_R34_SW REUNION_R34_NW REUNION_R50_NE REUNION_R50_SE REUNION_R50_SW REUNION_R50_NW REUNION_R64_NE REUNION_R64_SE REUNION_R64_SW REUNION_R64_NW BOM_LAT BOM_LON BOM_TYPE BOM_WIND BOM_PRES BOM_TNUM BOM_CI BOM_RMW BOM_R34_NE BOM_R34_SE BOM_R34_SW BOM_R34_NW BOM_R50_NE BOM_R50_SE BOM_R50_SW BOM_R50_NW BOM_R64_NE BOM_R64_SE BOM_R64_SW BOM_R64_NW BOM_ROCI BOM_POCI BOM_EYE BOM_POS_METHOD BOM_PRES_METHOD NADI_LAT NADI_LON NADI_CAT NADI_WIND NADI_PRES WELLINGTON_LAT WELLINGTON_LON WELLINGTON_WIND WELLINGTON_PRES DS824_LAT DS824_LON DS824_STAGE DS824_WIND DS824_PRES TD9636_LAT TD9636_LON TD9636_STAGE TD9636_WIND TD9636_PRES TD9635_LAT TD9635_LON TD9635_WIND TD9635_PRES TD9635_ROCI NEUMANN_LAT NEUMANN_LON NEUMANN_CLASS NEUMANN_WIND NEUMANN_PRES MLC_LAT MLC_LON MLC_CLASS MLC_WIND MLC_PRES USA_GUST BOM_GUST BOM_GUST_PER REUNION_GUST REUNION_GUST_PER USA_SEAHGT USA_SEARAD_NE USA_SEARAD_SE USA_SEARAD_SW USA_SEARAD_NW STORM_SPEED STORM_DIR
1995049S11133 1995 6 SI WA BOBBY 1995-02-18 00:00:00 TS -11.0000 133.000 main 46 24 O___________O_ jtwc_sh SH121995 -11.0000 133.000 15 -1 -11.0000 133.000 TC 15 9 257
1995049S11133 1995 6 SI WA BOBBY 1995-02-18 03:00:00 TS -11.1027 132.548 main 22 0 P___________P_ SH121995 -11.1027 132.548 15 -1 -11.1027 132.548 TC 15 9 257
1995049S11133 1995 6 SI WA BOBBY 1995-02-18 06:00:00 TS -11.2000 132.100 main 0 0 O___________O_ jtwc_sh SH121995 -11.2000 132.100 15 -1 -11.2000 132.100 TC 15 9 258
1995049S11133 1995 6 SI WA BOBBY 1995-02-18 09:00:00 TS -11.2924 131.657 main 21 0 P___________P_ SH121995 -11.2924 131.657 15 -1 -11.2924 131.657 TC 15 9 257
1995049S11133 1995 6 SI WA BOBBY 1995-02-18 12:00:00 TS -11.4000 131.200 main 0 0 O___________O_ jtwc_sh SH121995 -11.4000 131.200 15 -1 -11.4000 131.200 TC 15 10 255
1995049S11133 1995 6 SI WA BOBBY 1995-02-18 15:00:00 TS -11.5425 130.707 main 0 0 P___________P_ SH121995 -11.5425 130.707 17 -1 -11.5425 130.707 TC 17 10 253
1995049S11133 1995 6 SI WA BOBBY 1995-02-18 18:00:00 TS -11.7000 130.200 main 10 10 O___________O_ jtwc_sh SH121995 -11.7000 130.200 20 -1 -11.7000 130.200 TC 20 10 252
1995049S11133 1995 6 SI WA BOBBY 1995-02-18 21:00:00 TS -11.8574 129.700 main 44 44 P___________P_ SH121995 -11.8574 129.700 20 -1 -11.8574 129.700 TC 20 10 253
1995049S11133 1995 6 SI WA BOBBY 1995-02-19 00:00:00 TS -12.0000 129.200 20 1006 bom main 100 100 O___________O_ jtwc_sh SH121995 -12.0000 129.200 20 -1 -12.0000 129.200 TC 20 10 255
1995049S11133 1995 6 SI WA BOBBY 1995-02-19 03:00:00 TS -12.1149 128.700 main 156 156 P___________P_ SH121995 -12.1149 128.700 20 -1 -12.1149 128.700 TC 20 10 258
1995049S11133 1995 6 SI WA BOBBY 1995-02-19 06:00:00 TS -12.2000 128.200 20 1005 bom main 211 190 O___________O_ jtwc_sh SH121995 -12.2000 128.200 20 -1 -12.2000 128.200 TC 20 10 262
1995049S11133 1995 6 SI WA BOBBY 1995-02-19 09:00:00 TS -12.2499 127.700 main 190 168 P___________P_ SH121995 -12.2499 127.700 20 -1 -12.2499 127.700 TC 20 10 264
1995049S11133 1995 6 SI WA BOBBY 1995-02-19 12:00:00 TS -12.3000 127.200 20 1005 bom main 168 156 O___________O_ jtwc_sh SH121995 -12.3000 127.200 20 -1 -12.3000 127.200 TC 20 10 260
1995049S11133 1995 6 SI WA BOBBY 1995-02-19 15:00:00 TS -12.4149 126.693 main 158 151 P___________P_ SH121995 -12.4149 126.693 22 -1 -12.4149 126.693 TC 22 10 258
1995049S11133 1995 6 SI WA BOBBY 1995-02-19 18:00:00 TS -12.5000 126.200 20 1005 bom main 164 164 O___________O_ jtwc_sh SH121995 -12.5000 126.200 25 -1 -12.5000 126.200 TC 25 9 267
1995049S11133 1995 6 SI WA BOBBY 1995-02-19 21:00:00 TS -12.4574 125.742 main 173 173 P___________P_ SH121995 -12.4574 125.742 25 -1 -12.4574 125.742 TC 25 9 276
1995049S11133 1995 6 SI WA BOBBY 1995-02-20 00:00:00 TS -12.4000 125.300 20 1005 bom main 199 199 O___________O_ jtwc_sh SH121995 -12.4000 125.300 25 -1 -12.4000 125.300 TC 25 9 272
1995049S11133 1995 6 SI WA BOBBY 1995-02-20 03:00:00 TS -12.4274 124.850 main 221 221 P___________P_ SH121995 -12.4274 124.850 25 -1 -12.4274 124.850 TC 25 9 264
1995049S11133 1995 6 SI WA BOBBY 1995-02-20 06:00:00 TS -12.5000 124.400 20 1005 bom main 239 237 O___________O_ jtwc_sh SH121995 -12.5000 124.400 25 -1 -12.5000 124.400 TC 25 9 261
1995049S11133 1995 6 SI WA BOBBY 1995-02-20 09:00:00 TS -12.5699 123.950 main 246 246 P___________P_ SH121995 -12.5699 123.950 25 -1 -12.5699 123.950 TC 25 9 257
1995049S11133 1995 6 SI WA BOBBY 1995-02-20 12:00:00 TS -12.7000 123.500 20 1005 bom main 257 257 O___________O_ jtwc_sh SH121995 -12.7000 123.500 25 -1 -12.7000 123.500 TC 25 10 247
1995049S11133 1995 6 SI WA BOBBY 1995-02-20 15:00:00 TS -12.9349 123.050 main 283 283 P___________P_ SH121995 -12.9349 123.050 25 -1 -12.9349 123.050 TC 25 10 240
1995049S11133 1995 6 SI WA BOBBY 1995-02-20 18:00:00 TS -13.2000 122.600 20 1003 bom main 321 321 O___________O_ jtwc_sh SH121995 -13.2000 122.600 25 -1 -13.2000 122.600 TC 25 10 242
1995049S11133 1995 6 SI WA BOBBY 1995-02-20 21:00:00 TS -13.4000 122.142 main 349 345 P___________P_ SH121995 -13.4000 122.142 25 -1 -13.4000 122.142 TC 25 10 245
1995049S11133 1995 6 SI WA BOBBY 1995-02-21 00:00:00 TS -13.6000 121.700 25 1000 bom main 349 342 O___________O_ jtwc_sh SH121995 -13.6000 121.700 25 -1 -13.6000 121.700 TC 25 9 242
1995049S11133 1995 6 SI WA BOBBY 1995-02-21 03:00:00 TS -13.8349 121.285 main 347 337 P___________P_ SH121995 -13.8349 121.285 27 -1 -13.8349 121.285 TC 27 9 237
1995049S11133 1995 6 SI WA BOBBY 1995-02-21 06:00:00 TS -14.1000 120.900 25 1000 bom main 343 340 O___________O_ jtwc_sh SH121995 -14.1000 120.900 30 -1 -14.1000 120.900 TC 30 9 233
1995049S11133 1995 6 SI WA BOBBY 1995-02-21 09:00:00 TS -14.3850 120.527 main 348 348 P___________P_ SH121995 -14.3850 120.527 32 -1 -14.3850 120.527 TC 32 9 229
1995049S11133 1995 6 SI WA BOBBY 1995-02-21 12:00:00 TS -14.7000 120.200 30 998 bom main 348 340 O___________O_ jtwc_sh SH121995 -14.7000 120.200 35 0 -14.7000 120.200 TC 35 9 222
1995049S11133 1995 6 SI WA BOBBY 1995-02-21 15:00:00 TS -15.0274 119.927 35 995 bom main 347 334 P___________P_ SH121995 -15.0274 119.927 37 0 -15.0274 119.927 TC 37 9 215
1995049S11133 1995 6 SI WA BOBBY 1995-02-21 18:00:00 TS -15.4000 119.700 40 990 bom main 336 317 O___________O_ jtwc_sh SH121995 -15.4000 119.700 40 0 -15.4000 119.700 TC 40 10 202
1995049S11133 1995 6 SI WA BOBBY 1995-02-21 21:00:00 TS -15.9288 119.558 40 990 bom main 317 312 P_____O_____P_ SH121995 -15.8574 119.515 42 0 -16.5000 119.900 30 40 990 3.00000 215 3 5 -15.8574 119.515 TC 42 10 200
1995049S11133 1995 6 SI WA BOBBY 1995-02-22 00:00:00 TS -16.3600 119.340 45 985 bom main 324 321 O_____O_____O_ jtwc_sh SH121995 -16.3000 119.300 45 0 -16.6000 119.500 30 45 985 3.50000 215 3 5 -16.3000 119.300 TC 45 9 215
1995049S11133 1995 6 SI WA BOBBY 1995-02-22 03:00:00 TS -16.6709 119.007 55 980 bom main 344 344 P_____O_____P_ SH121995 -16.6225 118.972 47 0 -16.8000 119.100 30 55 980 4.00000 215 3 5 -16.6225 118.972 TC 47 9 228
1995049S11133 1995 6 SI WA BOBBY 1995-02-22 06:00:00 TS -16.9667 118.633 55 980 bom main 350 332 O_____O_____O_ jtwc_sh SH121995 -16.9000 118.600 50 0 -17.1000 118.700 30 55 980 4.00000 215 3 5 -16.9000 118.600 TC 50 9 230
1995049S11133 1995 6 SI WA BOBBY 1995-02-22 09:00:00 TS -17.2383 118.295 60 975 bom main 335 313 P_____O_____P_ SH121995 -17.2075 118.242 52 0 -17.3000 118.400 30 60 975 4.00000 215 3 5 -17.2075 118.242 TC 52 9 233
1995049S11133 1995 6 SI WA BOBBY 1995-02-22 12:00:00 TS -17.5000 117.900 60 975 bom main 317 295 O_____O_____O_ jtwc_sh SH121995 -17.5000 117.900 55 0 -17.5000 117.900 30 60 975 4.00000 215 3 5 -17.5000 117.900 TC 55 9 231
1995049S11133 1995 6 SI WA BOBBY 1995-02-22 15:00:00 TS -17.7716 117.600 70 970 bom main 295 278 P_____O_____P_ SH121995 -17.7574 117.600 57 0 -17.8000 117.600 40 70 970 4.50000 242 3 5 -17.7574 117.600 TC 57 8 229
1995049S11133 1995 6 SI WA BOBBY 1995-02-22 18:00:00 TS -18.0333 117.267 80 965 bom main 281 257 O_____O_____O_ jtwc_sh SH121995 -18.0000 117.300 60 0 -18.1000 117.200 40 80 965 5.00000 242 3 5 -18.0000 117.300 TC 60 9 232
1995049S11133 1995 6 SI WA BOBBY 1995-02-22 21:00:00 TS -18.3000 116.895 80 960 bom main 257 235 P_____O_____P_ SH121995 -18.2500 116.943 62 0 -18.4000 116.800 40 80 960 5.00000 242 5 3 5 -18.2500 116.943 TC 62 8 237
1995049S11133 1995 6 SI WA BOBBY 1995-02-23 00:00:00 TS -18.4667 116.567 80 955 bom main 235 214 O_____O_____O_ jtwc_sh SH121995 -18.5000 116.600 65 1 -18.4000 116.500 40 80 955 5.00000 242 4 6 5 -18.5000 116.600 TC 65 7 232
1995049S11133 1995 6 SI WA BOBBY 1995-02-23 03:00:00 TS -18.7383 116.313 80 955 bom main 216 189 P_____O_____P_ SH121995 -18.7574 116.320 67 1 -18.7000 116.300 40 80 955 5.00000 242 3 6 5 -18.7574 116.320 TC 67 7 220
1995049S11133 1995 6 SI WA BOBBY 1995-02-23 06:00:00 TS -19.0000 116.100 80 955 bom main 189 172 O_____O_____O_ jtwc_sh SH121995 -19.0000 116.100 70 1 -19.0000 116.100 40 80 955 5.00000 242 3 6 5 -19.0000 116.100 TC 70 6 219
1995049S11133 1995 6 SI WA BOBBY 1995-02-23 09:00:00 TS -19.2050 115.913 80 955 bom main 177 163 P_____O_____P_ SH121995 -19.2075 115.920 72 1 -19.2000 115.900 40 80 955 5.00000 242 3 6 5 -19.2075 115.920 TC 72 5 215
1995049S11133 1995 6 SI WA BOBBY 1995-02-23 12:00:00 TS -19.4000 115.800 80 955 bom main 163 154 O_____O_____O_ jtwc_sh SH121995 -19.4000 115.800 75 1 -19.4000 115.800 40 80 955 5.00000 242 3 6 5 -19.4000 115.800 TC 75 4 206
1995049S11133 1995 6 SI WA BOBBY 1995-02-23 15:00:00 TS -19.5283 115.752 80 955 bom main 154 133 P_____O_____P_ SH121995 -19.5925 115.727 77 1 -19.4000 115.800 40 80 955 5.00000 242 3 6 5 -19.5925 115.727 TC 77 4 195
1995049S11133 1995 6 SI WA BOBBY 1995-02-23 18:00:00 TS -19.7667 115.700 80 955 bom main 133 113 O_____O_____O_ jtwc_sh SH121995 -19.8000 115.700 80 1 -19.7000 115.700 40 80 955 5.00000 242 3 6 5 -19.8000 115.700 TC 80 5 182
1995049S11133 1995 6 SI WA BOBBY 1995-02-23 21:00:00 TS -20.0283 115.728 80 955 bom main 113 84 P_____O_____P_ SH121995 -20.0425 115.692 85 2 -20.0000 115.800 40 80 955 5.00000 242 3 6 5 -20.0425 115.692 TC 85 5 175
1995049S11133 1995 6 SI WA BOBBY 1995-02-24 00:00:00 TS -20.2667 115.733 85 950 bom main 84 61 O_____O_____O_ jtwc_sh SH121995 -20.3000 115.700 90 2 -20.2000 115.800 40 85 950 5.00000 242 3 6 5 -20.3000 115.700 TC 90 5 175
1995049S11133 1995 6 SI WA BOBBY 1995-02-24 03:00:00 TS -20.5333 115.777 95 940 bom main 61 39 P_____O_____P_ SH121995 -20.5500 115.715 95 2 -20.5000 115.900 40 95 940 5.50000 242 3 6 5 -20.5500 115.715 TC 95 6 184
1995049S11133 1995 6 SI WA BOBBY 1995-02-24 06:00:00 TS -20.8667 115.700 100 930 bom main 30 23 O_____O_____O_ jtwc_sh SH121995 -20.8000 115.700 100 3 -21.0000 115.700 40 100 930 6.00000 242 3 6 5 -20.8000 115.700 TC 100 6 194
1995049S11133 1995 6 SI WA BOBBY 1995-02-24 09:00:00 TS -21.1383 115.610 105 925 bom main 23 15 P_____O_____P_ SH121995 -21.0575 115.615 105 3 -21.3000 115.600 40 105 925 6.00000 242 3 6 5 -21.0575 115.615 TC 105 5 205
1995049S11133 1995 6 SI WA BOBBY 1995-02-24 12:00:00 TS -21.3333 115.467 100 930 bom main 15 10 O_____O_____O_ jtwc_sh SH121995 -21.3000 115.500 110 3 -21.4000 115.400 40 100 930 6.00000 242 3 6 5 -21.3000 115.500 TC 110 4 212
1995049S11133 1995 6 SI WA BOBBY 1995-02-24 15:00:00 TS -21.5050 115.362 95 940 bom main 10 0 P_____O_____P_ SH121995 -21.5075 115.392 105 3 -21.5000 115.300 40 95 940 242 3 6 5 -21.5075 115.392 TC 102 4 207
1995049S11133 1995 6 SI WA BOBBY 1995-02-24 18:00:00 TS -21.7000 115.267 90 945 bom main 0 0 O_____O_____O_ jtwc_sh SH121995 -21.7000 115.300 100 3 -21.7000 115.200 40 90 945 242 3 6 5 -21.7000 115.300 TC 95 4 204
1995049S11133 1995 6 SI WA BOBBY 1995-02-24 21:00:00 TS -21.8567 115.190 85 950 bom main 0 0 P_____O_____P_ SH121995 -21.8850 115.235 95 2 -21.8000 115.100 40 85 950 242 3 6 5 -21.8850 115.235 TC 85 4 189
1995049S11133 1995 6 SI WA BOBBY 1995-02-25 00:00:00 TS -22.0667 115.200 80 955 bom main 0 0 O_____O_____O_ jtwc_sh SH121995 -22.1000 115.200 90 2 -22.0000 115.200 40 80 955 242 6 5 -22.1000 115.200 TC 75 5 179
1995049S11133 1995 6 SI WA BOBBY 1995-02-25 03:00:00 TS -22.3800 115.195 75 960 bom main 0 0 P_____O_____P_ SH121995 -22.3700 115.192 85 2 -22.4000 115.200 40 75 960 242 6 5 -22.3700 115.192 TC 65 7 179
1995049S11133 1995 6 SI WA BOBBY 1995-02-25 06:00:00 TS -22.7333 115.200 65 970 bom main 0 0 O_____O_____O_ jtwc_sh SH121995 -22.7000 115.200 80 1 -22.8000 115.200 40 65 970 242 6 5 -22.7000 115.200 TC 55 7 0
1995049S11133 1995 6 SI WA BOBBY 1995-02-25 09:00:00 TS -23.1183 115.190 65 970 bom main 0 0 P_____O_____P_ SH121995 -23.0775 115.185 75 1 -23.2000 115.200 40 65 970 242 3 5 -23.0775 115.185 TC 47 8 177
1995049S11133 1995 6 SI WA BOBBY 1995-02-25 12:00:00 TS -23.5333 115.233 65 970 bom main 0 0 O_____O_____O_ jtwc_sh SH121995 -23.5000 115.200 70 1 -23.6000 115.300 40 65 970 242 3 5 -23.5000 115.200 TC 40 9 173
1995049S11133 1995 6 SI WA BOBBY 1995-02-25 15:00:00 TS -23.9616 115.313 60 975 bom main 0 0 P_____O_____P_ SH121995 -23.9425 115.270 65 1 -24.0000 115.400 30 60 975 242 3 5 -23.9425 115.270 TC 37 9 168
1995049S11133 1995 6 SI WA BOBBY 1995-02-25 18:00:00 TS -24.4000 115.433 60 975 bom main 0 0 O_____O_____O_ jtwc_sh SH121995 -24.4000 115.400 60 0 -24.4000 115.500 30 60 975 242 3 5 -24.4000 115.400 TC 35 10 164
1995049S11133 1995 6 SI WA BOBBY 1995-02-25 21:00:00 TS -24.8950 115.613 55 980 bom main 0 0 P_____O_____P_ SH121995 -24.8425 115.570 57 0 -25.0000 115.700 30 55 980 242 3 5 -24.8425 115.570 TC 35 10 161
1995049S11133 1995 6 SI WA BOBBY 1995-02-26 00:00:00 TS -25.3667 115.800 55 980 bom main 0 0 O_____O_____O_ jtwc_sh SH121995 -25.3000 115.800 55 0 -25.5000 115.800 30 55 980 242 3 5 -25.3000 115.800 TC 35 10 160
1995049S11133 1995 6 SI WA BOBBY 1995-02-26 03:00:00 TS -25.8709 116.012 main 0 0 P_____P_____P_ SH121995 -25.7997 116.048 52 0 -26.0134 115.939 30 52 982 242 -25.7997 116.048 TC 35 11 154
1995049S11133 1995 6 SI WA BOBBY 1995-02-26 06:00:00 TS -26.3667 116.333 50 985 bom main 0 0 O_____O_____O_ jtwc_sh SH121995 -26.3000 116.400 50 0 -26.5000 116.200 30 50 985 242 3 5 -26.3000 116.400 TC 35 12 143
1995049S11133 1995 6 SI WA BOBBY 1995-02-26 09:00:00 TS -26.8147 116.795 main 0 0 P_____P_____P_ SH121995 -26.7648 116.883 47 0 -26.9147 116.618 30 47 985 242 -26.7648 116.883 TC 35 13 132
1995049S11133 1995 6 SI WA BOBBY 1995-02-26 12:00:00 TS -27.2333 117.400 45 985 bom main 0 0 O_____O_____O_ jtwc_sh SH121995 -27.2000 117.500 45 0 -27.3000 117.200 30 45 985 242 3 5 -27.2000 117.500 TC 35 14 125
1995049S11133 1995 6 SI WA BOBBY 1995-02-26 15:00:00 TS -27.6356 118.101 main 0 0 P_____P_____P_ SH121995 -27.5996 118.198 40 0 -27.7075 117.905 30 45 985 242 -27.5996 118.198 TC 32 16 121
1995049S11133 1995 6 SI WA BOBBY 1995-02-26 18:00:00 TS -28.0333 118.900 45 985 bom main 0 0 O_____O_____O_ jtwc_sh SH121995 -28.0000 119.000 35 0 -28.1000 118.700 30 45 985 242 3 5 -28.0000 119.000 TC 30 17 119
1995049S11133 1995 6 SI WA BOBBY 1995-02-26 21:00:00 TS -28.4599 119.762 main 0 0 P_____P_____P_ SH121995 -28.4495 119.863 27 -1 -28.4806 119.560 30 42 988 242 -28.4495 119.863 TC 30 18 118
1995049S11133 1995 6 SI WA BOBBY 1995-02-27 00:00:00 TS -28.8727 120.664 40 992 bom main 0 0 O_____O_____O_ jtwc_sh SH121995 -28.9000 120.800 20 -1 -28.8000 120.300 30 40 992 242 3 5 -28.9000 120.800 TC 30 18 117
1995049S11133 1995 6 SI WA BOBBY 1995-02-27 03:00:00 TS -29.2569 121.571 main 0 0 P_____P_____P_ SH121995 -29.3144 121.778 20 -1 -29.0270 120.743 30 35 994 242 -29.3144 121.778 TC 27 18 115
1995049S11133 1995 6 SI WA BOBBY 1995-02-27 06:00:00 TS -29.6286 122.543 30 996 bom main 0 0 O_____O_____O_ jtwc_sh SH121995 -29.7000 122.800 20 -1 -29.2000 121.000 20 30 996 242 3 5 -29.7000 122.800 TC 25 21 112
1995049S11133 1995 6 SI WA BOBBY 1995-02-27 09:00:00 TS -30.0591 123.844 main 0 0 P___________P_ SH121995 -30.0591 123.844 20 -1 20 -30.0591 123.844 TC 25 22 111
1995049S11133 1995 6 SI WA BOBBY 1995-02-27 12:00:00 TS -30.4000 124.900 main 0 O___________O_ jtwc_sh SH121995 -30.4000 124.900 20 -1 -30.4000 124.900 TC 25 19 111

About IBTrACS Database

This database is a web-friendly format of International Best Track Archive for Climate Stewardship (IBTrACS), a global best track data archive curated by NOAA dating back to 1842.

Updated: 2021-12-03